Bookmark and Share
Track history (hours):
 

Grande Italia

Last reported at 2014-Apr-19 04:34 UTC. Time now 2014-Apr-19 05:18 UTC.
Position N 50°21' W 005°52'.

Length 177 m; draft 8.1 m.

Type: Cargo ship. MMSI: 247039300.

NotesDate/timePositionNaut miles runAvg speedWind from/ knotsBaromVisibWave heightAir tempDewpointWater temp
2014-Apr-19 04:34N 50°21' W 005°52'67814.3
2014-Apr-17 05:04N 39°24' W 009°51'815.1
2014-Apr-17 04:31N 39°16' W 009°52'1814.9
2014-Apr-17 03:18N 38°58' W 009°52'3014.5
2014-Apr-17 01:13N 38°28' W 009°47'1314.2
2014-Apr-17 00:19N 38°15' W 009°44'1314.7
2014-Apr-16 23:25N 38°02' W 009°40'1314.5
2014-Apr-16 22:33N 37°50' W 009°36'1414.0
2014-Apr-16 21:33N 37°37' W 009°32'1514.3
2014-Apr-16 20:32N 37°22' W 009°28'2214.5
2014-Apr-16 19:03N 37°01' W 009°22'2113.2
2014-Apr-16 17:25N 36°44' W 009°06'1214.1
2014-Apr-16 16:33N 36°40' W 008°52'1414.2
2014-Apr-16 15:33N 36°35' W 008°35'1714.3
2014-Apr-16 14:22N 36°30' W 008°15'1514.1
2014-Apr-16 13:19N 36°25' W 007°58'11813.5
2014-Apr-16 04:33N 35°58' W 005°35'1414.0
2014-Apr-16 03:33N 36°02' W 005°18'1313.0
2014-Apr-16 02:33N 36°04' W 005°03'23013.5
2014-Apr-15 09:30N 37°31' W 000°37'1515.0
2014-Apr-15 08:31N 37°43' W 000°26'1515.2
2014-Apr-15 07:32N 37°56' W 000°15'136 2.9
2014-Apr-13 08:20N 40°06' E 000°35'1114.6
2014-Apr-13 07:33N 40°13' E 000°47'1414.6
2014-Apr-13 06:33N 40°22' E 001°01'1514.6
2014-Apr-13 05:33N 40°31' E 001°17'1515.2
2014-Apr-13 04:33N 40°41' E 001°32'1515.2
2014-Apr-13 03:33N 40°53' E 001°45'1515.1
2014-Apr-13 02:33N 41°04' E 001°57'1514.7
2014-Apr-13 01:33N 41°16' E 002°09'4 3.9
2014-Apr-13 00:25N 41°20' E 002°09'0 0.0
2014-Apr-12 23:25N 41°20' E 002°09'0 0.0
2014-Apr-12 22:19N 41°20' E 002°09'0 0.0
2014-Apr-12 21:19N 41°20' E 002°09'0 0.0
2014-Apr-12 18:31N 41°20' E 002°09'0 0.0
2014-Apr-12 15:19N 41°20' E 002°09'1 0.2
2014-Apr-12 08:23N 41°20' E 002°10'8 9.3
2014-Apr-12 07:29N 41°21' E 002°21'1414.6
2014-Apr-12 06:33N 41°28' E 002°36'3114.7
2014-Apr-12 04:26N 41°46' E 003°10'1314.9
2014-Apr-12 03:33N 41°55' E 003°23'1914.7
2014-Apr-12 02:18N 42°10' E 003°38'1215.9
2014-Apr-12 01:33N 42°18' E 003°49'1514.6
2014-Apr-12 00:33N 42°30' E 004°01'4314.2
2014-Apr-11 21:32N 43°03' E 004°39'1313.0
2014-Apr-11 20:33N 43°12' E 004°50'1110.9
2014-Apr-11 19:33N 43°22' E 004°56'4 4.4
2014-Apr-11 18:33N 43°24' E 004°51'0 0.0
2014-Apr-11 17:33N 43°24' E 004°51'0 0.0
2014-Apr-11 16:33N 43°24' E 004°51'0 0.0
2014-Apr-11 15:33N 43°24' E 004°51'0 0.0
2014-Apr-11 14:33N 43°24' E 004°51'0 0.0
2014-Apr-11 13:24N 43°24' E 004°51'0 0.0
2014-Apr-11 12:33N 43°24' E 004°51'0 0.0
2014-Apr-11 11:30N 43°24' E 004°51'0 0.0
2014-Apr-11 10:33N 43°24' E 004°51'0 0.0
2014-Apr-11 09:33N 43°24' E 004°51'0 0.4
2014-Apr-11 08:33N 43°24' E 004°51'9 9.5
2014-Apr-11 07:34N 43°17' E 005°00'1413.7
2014-Apr-11 06:33N 43°08' E 005°15'1514.9
2014-Apr-11 05:33N 43°02' E 005°33'1515.1
2014-Apr-11 04:34N 42°56' E 005°52'1515.2
2014-Apr-11 03:34N 42°52' E 006°12'1515.0
2014-Apr-11 02:34N 42°51' E 006°33'1515.2
2014-Apr-11 01:34N 43°01' E 006°49'1615.5
2014-Apr-11 00:33N 43°10' E 007°06'1715.4
2014-Apr-10 23:27N 43°21' E 007°23'1415.2
2014-Apr-10 22:33N 43°30' E 007°38'2015.6
2014-Apr-10 21:14N 43°42' E 008°00'1215.2
2014-Apr-10 20:25N 43°50' E 008°14'1314.7
2014-Apr-10 19:33N 44°01' E 008°24'1514.5
2014-Apr-10 18:29N 44°15' E 008°31'4 3.5
2014-Apr-10 17:28N 44°19' E 008°30'0 0.0
2014-Apr-10 16:22N 44°19' E 008°30'0 0.0
2014-Apr-10 15:31N 44°19' E 008°30'0 0.0
2014-Apr-10 14:28N 44°19' E 008°30'0 0.0
2014-Apr-10 13:28N 44°19' E 008°30'0 0.0
2014-Apr-10 12:28N 44°19' E 008°30'0 0.0
2014-Apr-10 11:25N 44°19' E 008°30'0 0.2
2014-Apr-10 10:33N 44°19' E 008°30'7 6.6
2014-Apr-10 09:33N 44°15' E 008°37'1414.5
2014-Apr-10 08:33N 44°07' E 008°54'1514.7
2014-Apr-10 07:33N 43°57' E 009°10'1514.8
2014-Apr-10 06:33N 43°49' E 009°27'1515.0
2014-Apr-10 05:33N 43°40' E 009°43'1414.4
2014-Apr-10 04:33N 43°31' E 009°59'1212.3
2014-Apr-10 03:34N 43°32' E 010°16'4 3.5
2014-Apr-10 02:31N 43°35' E 010°19'0 0.0
2014-Apr-10 01:31N 43°35' E 010°19'0 0.0
2014-Apr-10 00:31N 43°35' E 010°19'0 0.0
2014-Apr-09 23:31N 43°35' E 010°19'0 0.0
2014-Apr-09 22:28N 43°35' E 010°19'0 0.0
2014-Apr-09 21:31N 43°35' E 010°19'1 1.4
2014-Apr-09 20:33N 43°34' E 010°18'3 3.0
2014-Apr-09 19:33N 43°31' E 010°16'4 3.9
2014-Apr-09 18:34N 43°28' E 010°13'1717.3
2014-Apr-09 17:34N 43°11' E 010°07'1817.5
2014-Apr-09 16:33N 42°54' E 010°01'1817.5
2014-Apr-09 15:33N 42°37' E 009°55'  

Dump ship's entire track history

sailing weather and tide predictions

Grande Italia — IBTF — position and weather